createdAt,value
2022-10-01T00:01:30.584Z,8.50
2022-10-01T00:04:15.916Z,8.50
2022-10-01T00:07:04.690Z,8.40
2022-10-01T00:09:50.668Z,8.40
2022-10-01T00:12:36.289Z,8.30
2022-10-01T00:15:22.054Z,8.30
2022-10-01T00:18:08.938Z,8.30
2022-10-01T00:20:54.833Z,8.20
2022-10-01T00:23:40.910Z,8.10
2022-10-01T00:26:29.611Z,8.10
2022-10-01T00:29:15.703Z,8.10
2022-10-01T00:32:02.198Z,8.10
2022-10-01T00:34:49.101Z,8.10
2022-10-01T00:37:37.756Z,8.00
2022-10-01T00:40:24.002Z,8.00
2022-10-01T00:43:28.946Z,8.00
2022-10-01T00:46:29.423Z,7.90
2022-10-01T00:49:20.462Z,7.90
2022-10-01T00:52:10.360Z,7.90
2022-10-01T00:55:01.923Z,7.90
2022-10-01T00:57:47.566Z,7.90
2022-10-01T01:00:33.288Z,7.80
2022-10-01T01:03:18.768Z,7.80
2022-10-01T01:09:09.773Z,7.70
2022-10-01T01:12:11.452Z,7.70
2022-10-01T01:15:23.932Z,7.70
2022-10-01T01:18:23.837Z,7.70
2022-10-01T01:21:35.214Z,7.60
2022-10-01T01:24:39.341Z,7.60
2022-10-01T01:27:31.567Z,7.60
2022-10-01T01:30:18.448Z,7.60
2022-10-01T01:33:12.117Z,7.60
2022-10-01T01:36:25.678Z,7.60
2022-10-01T01:39:16.911Z,7.60
2022-10-01T01:42:10.569Z,7.60
2022-10-01T01:45:00.043Z,7.60
2022-10-01T01:47:46.816Z,7.60
2022-10-01T01:50:38.336Z,7.70
2022-10-01T01:53:24.699Z,7.70
2022-10-01T01:56:10.763Z,7.70
2022-10-01T01:58:58.361Z,7.60
2022-10-01T02:01:44.759Z,7.70
2022-10-01T02:04:48.173Z,7.70
2022-10-01T02:07:54.705Z,7.70
2022-10-01T02:10:57.012Z,7.70
2022-10-01T02:13:55.230Z,7.60
2022-10-01T02:17:01.769Z,7.50
2022-10-01T02:20:07.797Z,7.50
2022-10-01T02:23:03.728Z,7.50
2022-10-01T02:25:56.474Z,7.60
2022-10-01T02:29:02.718Z,7.60
2022-10-01T02:31:56.299Z,7.60
2022-10-01T02:34:43.755Z,7.60
2022-10-01T02:37:29.544Z,7.60
2022-10-01T02:40:21.448Z,7.50
2022-10-01T02:43:12.751Z,7.50
2022-10-01T02:46:06.154Z,7.50
2022-10-01T02:48:51.988Z,7.60
2022-10-01T02:52:05.715Z,7.60
2022-10-01T02:55:17.927Z,7.70
2022-10-01T02:58:03.859Z,7.80
2022-10-01T03:00:49.552Z,7.90
2022-10-01T03:03:35.441Z,8.10
2022-10-01T03:06:20.750Z,8.20
2022-10-01T03:09:08.852Z,8.30
2022-10-01T03:11:55.355Z,8.30
2022-10-01T03:14:40.873Z,8.40
2022-10-01T03:17:26.908Z,8.40
2022-10-01T03:20:12.575Z,8.30
2022-10-01T03:22:58.714Z,8.30
2022-10-01T03:25:44.198Z,8.40
2022-10-01T03:28:30.526Z,8.40
2022-10-01T03:31:16.811Z,8.30
2022-10-01T03:34:02.177Z,8.50
2022-10-01T03:36:47.667Z,8.70
2022-10-01T03:39:35.693Z,8.80
2022-10-01T03:42:21.444Z,8.90
2022-10-01T03:45:07.280Z,9.00
2022-10-01T03:47:53.592Z,9.10
2022-10-01T03:50:39.261Z,9.00
2022-10-01T03:53:27.544Z,9.10
2022-10-01T03:56:13.363Z,9.00
2022-10-01T03:58:59.542Z,9.20
2022-10-01T04:01:45.609Z,9.20
2022-10-01T04:04:31.260Z,9.30
2022-10-01T04:07:16.935Z,9.40
2022-10-01T04:10:03.764Z,9.50
2022-10-01T04:12:49.494Z,9.50
2022-10-01T04:15:34.971Z,9.50
2022-10-01T04:18:21.624Z,9.50
2022-10-01T04:21:08.225Z,9.60
2022-10-01T04:23:54.623Z,9.60
2022-10-01T04:26:39.959Z,9.60
2022-10-01T04:29:26.041Z,9.60
2022-10-01T04:32:12.086Z,9.60
2022-10-01T04:34:57.493Z,9.70
2022-10-01T04:37:45.910Z,9.70
2022-10-01T04:40:34.958Z,9.70
2022-10-01T04:43:20.580Z,9.80
2022-10-01T04:46:07.172Z,9.70
2022-10-01T04:48:53.174Z,9.70
2022-10-01T04:51:38.419Z,9.80
2022-10-01T04:54:24.217Z,9.70
2022-10-01T04:57:09.531Z,9.70
2022-10-01T04:59:55.157Z,9.70
2022-10-01T05:02:41.545Z,9.80
2022-10-01T05:05:29.248Z,9.80
2022-10-01T05:08:14.777Z,9.80
2022-10-01T05:11:00.711Z,9.90
2022-10-01T05:13:46.310Z,9.90
2022-10-01T05:16:32.344Z,10.00
2022-10-01T05:19:17.764Z,10.00
2022-10-01T05:22:04.559Z,10.10
2022-10-01T05:24:49.989Z,10.10
2022-10-01T05:27:40.548Z,10.20
2022-10-01T05:30:25.997Z,10.30
2022-10-01T05:33:11.354Z,10.30
2022-10-01T05:35:58.408Z,10.30
2022-10-01T05:38:44.144Z,10.40
2022-10-01T05:41:30.073Z,10.40
2022-10-01T05:44:15.540Z,10.40
2022-10-01T05:47:02.458Z,10.50
2022-10-01T05:49:48.181Z,10.60
2022-10-01T05:52:33.515Z,10.60
2022-10-01T05:55:19.997Z,10.60
2022-10-01T05:58:08.058Z,10.60
2022-10-01T06:00:55.462Z,10.70
2022-10-01T06:03:41.038Z,10.70
2022-10-01T06:06:27.448Z,10.80
2022-10-01T06:09:13.742Z,10.70
2022-10-01T06:11:59.338Z,10.80
2022-10-01T06:14:44.798Z,10.80
2022-10-01T06:17:30.102Z,10.80
2022-10-01T06:20:20.852Z,10.90
2022-10-01T06:23:11.382Z,10.90
2022-10-01T06:26:00.703Z,10.90
2022-10-01T06:28:49.069Z,11.00
2022-10-01T06:31:35.267Z,11.00
2022-10-01T06:34:21.095Z,11.00
2022-10-01T06:37:06.674Z,11.00
2022-10-01T06:39:52.153Z,11.00
2022-10-01T06:42:37.718Z,11.00
2022-10-01T06:45:23.626Z,11.00
2022-10-01T06:48:14.711Z,11.00
2022-10-01T06:51:00.476Z,11.00
2022-10-01T06:53:45.825Z,11.10
2022-10-01T06:56:31.409Z,11.10
2022-10-01T06:59:16.958Z,11.20
2022-10-01T07:02:03.112Z,11.20
2022-10-01T07:04:48.477Z,11.30
2022-10-01T07:07:37.260Z,11.30
2022-10-01T07:10:23.404Z,11.30
2022-10-01T07:13:14.012Z,11.30
2022-10-01T07:15:59.472Z,11.40
2022-10-01T07:18:45.094Z,11.40
2022-10-01T07:21:30.475Z,11.50
2022-10-01T07:24:17.164Z,11.50
2022-10-01T07:27:07.499Z,11.60
2022-10-01T07:29:53.758Z,11.60
2022-10-01T07:32:44.018Z,11.60
2022-10-01T07:35:29.823Z,11.60
2022-10-01T07:38:15.957Z,11.70
2022-10-01T07:41:03.319Z,11.70
2022-10-01T07:43:50.156Z,11.70
2022-10-01T07:46:36.030Z,11.60
2022-10-01T07:49:21.563Z,11.70
2022-10-01T07:52:12.363Z,11.60
2022-10-01T07:54:59.314Z,11.70
2022-10-01T07:57:53.008Z,11.60
2022-10-01T08:00:39.124Z,11.70
2022-10-01T08:03:27.445Z,11.60
2022-10-01T08:06:13.409Z,11.70
2022-10-01T08:09:00.121Z,11.60
2022-10-01T08:11:45.798Z,11.60
2022-10-01T08:14:31.757Z,11.60
2022-10-01T08:17:17.385Z,11.60
2022-10-01T08:20:10.954Z,11.60
2022-10-01T08:23:07.221Z,11.60
2022-10-01T08:25:53.090Z,11.60
2022-10-01T08:28:38.503Z,11.70
2022-10-01T08:31:24.467Z,11.70
2022-10-01T08:34:09.633Z,11.70
2022-10-01T08:36:57.747Z,11.70
2022-10-01T08:39:43.346Z,11.70
2022-10-01T08:42:37.864Z,11.60
2022-10-01T08:45:33.142Z,11.60
2022-10-01T08:48:45.860Z,11.70
2022-10-01T08:51:55.840Z,11.70
2022-10-01T08:54:55.342Z,11.60
2022-10-01T08:57:48.651Z,11.60
2022-10-01T09:00:39.728Z,11.70
2022-10-01T09:03:27.671Z,11.70
2022-10-01T09:06:18.132Z,11.80
2022-10-01T09:09:23.286Z,11.90
2022-10-01T09:12:45.632Z,12.00
2022-10-01T09:16:07.755Z,12.10
2022-10-01T09:19:23.920Z,12.10
2022-10-01T09:22:26.128Z,12.10
2022-10-01T09:25:25.192Z,12.10
2022-10-01T09:28:16.073Z,12.10
2022-10-01T09:31:21.628Z,12.10
2022-10-01T09:34:14.881Z,12.10
2022-10-01T09:37:14.840Z,12.10
2022-10-01T09:40:34.990Z,12.00
2022-10-01T09:43:23.238Z,12.00
2022-10-01T09:46:17.515Z,12.10
2022-10-01T09:49:10.609Z,12.10
2022-10-01T09:52:02.810Z,12.10
2022-10-01T09:55:24.463Z,12.10
2022-10-01T09:58:14.792Z,12.10
2022-10-01T10:01:01.777Z,12.20
2022-10-01T10:03:55.465Z,12.30
2022-10-01T10:06:41.127Z,12.10
2022-10-01T10:09:32.236Z,12.00
2022-10-01T10:12:29.511Z,12.00
2022-10-01T10:15:22.019Z,11.90
2022-10-01T10:18:19.272Z,11.80
2022-10-01T10:21:16.537Z,11.80
2022-10-01T10:24:06.995Z,11.70
2022-10-01T10:26:55.922Z,11.70
2022-10-01T10:29:41.518Z,11.70
2022-10-01T10:32:28.223Z,11.70
2022-10-01T10:35:28.702Z,11.60
2022-10-01T10:38:19.132Z,11.60
2022-10-01T10:41:04.709Z,11.60
2022-10-01T10:43:50.796Z,11.60
2022-10-01T10:46:43.999Z,11.60
2022-10-01T10:49:33.972Z,11.50
2022-10-01T10:52:33.974Z,11.60
2022-10-01T10:55:31.137Z,11.60
2022-10-01T10:58:16.627Z,11.70
2022-10-01T11:01:13.719Z,11.70
2022-10-01T11:04:01.265Z,11.70
2022-10-01T11:06:56.029Z,11.80
2022-10-01T11:09:51.656Z,11.90
2022-10-01T11:13:04.995Z,12.00
2022-10-01T11:16:08.907Z,12.00
2022-10-01T11:19:18.192Z,12.00
2022-10-01T11:22:12.593Z,12.10
2022-10-01T11:25:18.384Z,12.20
2022-10-01T11:28:20.812Z,12.20
2022-10-01T11:31:30.539Z,12.30
2022-10-01T11:34:43.798Z,12.30
2022-10-01T11:37:34.879Z,12.30
2022-10-01T11:40:38.777Z,12.20
2022-10-01T11:43:33.003Z,12.20
2022-10-01T11:46:30.868Z,12.40
2022-10-01T11:49:34.565Z,12.40
2022-10-01T11:52:41.489Z,12.40
2022-10-01T11:55:54.715Z,12.40
2022-10-01T11:59:01.624Z,12.40
2022-10-01T12:02:15.279Z,12.40
2022-10-01T12:05:11.628Z,12.40
2022-10-01T12:08:38.383Z,12.50
2022-10-01T12:11:35.961Z,12.60
2022-10-01T12:14:31.557Z,12.60
2022-10-01T12:17:30.306Z,12.70
2022-10-01T12:20:27.393Z,12.80
2022-10-01T12:23:18.107Z,12.80
2022-10-01T12:26:30.134Z,12.90
2022-10-01T12:29:41.458Z,13.00
2022-10-01T12:33:07.791Z,13.00
2022-10-01T12:36:08.454Z,13.10
2022-10-01T12:39:09.158Z,13.10
2022-10-01T12:42:18.983Z,13.20
2022-10-01T12:45:32.258Z,13.30
2022-10-01T12:48:25.539Z,13.40
2022-10-01T12:51:38.605Z,13.50
2022-10-01T12:54:49.042Z,13.80
2022-10-01T12:57:47.126Z,14.00
2022-10-01T13:00:42.458Z,14.10
2022-10-01T13:03:46.345Z,14.20
2022-10-01T13:06:57.989Z,14.30
2022-10-01T13:10:08.193Z,14.40
2022-10-01T13:13:03.092Z,14.60
2022-10-01T13:15:52.934Z,14.60
2022-10-01T13:18:59.984Z,14.60
2022-10-01T13:22:11.605Z,14.70
2022-10-01T13:25:15.697Z,14.90
2022-10-01T13:28:17.189Z,15.00
2022-10-01T13:31:15.091Z,15.10
2022-10-01T13:34:01.545Z,15.00
2022-10-01T13:36:47.292Z,15.00
2022-10-01T13:39:38.871Z,14.90
2022-10-01T13:42:32.992Z,15.00
2022-10-01T13:45:31.321Z,14.90
2022-10-01T13:48:34.542Z,15.00
2022-10-01T13:51:20.399Z,15.00
2022-10-01T13:54:18.580Z,15.00
2022-10-01T13:57:08.877Z,15.00
2022-10-01T14:00:00.304Z,15.00
2022-10-01T14:03:04.317Z,14.90
2022-10-01T14:05:57.610Z,15.00
2022-10-01T14:08:54.689Z,15.00
2022-10-01T14:12:03.451Z,15.00
2022-10-01T14:15:21.184Z,15.00
2022-10-01T14:18:21.323Z,15.00
2022-10-01T14:21:34.692Z,15.20
2022-10-01T14:24:36.297Z,15.20
2022-10-01T14:27:54.245Z,15.10
2022-10-01T14:31:01.354Z,15.10
2022-10-01T14:34:05.591Z,15.10
2022-10-01T14:36:53.526Z,15.00
2022-10-01T14:39:39.118Z,15.00
2022-10-01T14:42:25.032Z,15.00
2022-10-01T14:45:18.622Z,14.80
2022-10-01T14:48:09.756Z,14.80
2022-10-01T14:50:59.279Z,14.80
2022-10-01T14:53:45.198Z,14.70
2022-10-01T14:56:30.771Z,14.80
2022-10-01T14:59:40.029Z,14.70
2022-10-01T15:02:26.586Z,14.70
2022-10-01T15:05:34.133Z,14.70
2022-10-01T15:08:23.938Z,14.70
2022-10-01T15:11:22.244Z,14.60
2022-10-01T15:14:15.069Z,14.70
2022-10-01T15:17:05.718Z,14.70
2022-10-01T15:19:56.280Z,14.60
2022-10-01T15:22:44.725Z,14.60
2022-10-01T15:25:32.409Z,14.50
2022-10-01T15:28:32.954Z,14.50
2022-10-01T15:31:21.581Z,14.50
2022-10-01T15:34:15.580Z,14.40
2022-10-01T15:37:01.889Z,14.40
2022-10-01T15:39:49.570Z,14.40
2022-10-01T15:42:35.640Z,14.40
2022-10-01T15:45:25.858Z,14.40
2022-10-01T15:48:29.166Z,14.40
2022-10-01T15:51:27.656Z,14.40
2022-10-01T15:54:15.615Z,14.40
2022-10-01T15:57:02.252Z,14.40
2022-10-01T15:59:50.506Z,14.40
2022-10-01T16:02:36.259Z,14.40
2022-10-01T16:05:37.556Z,14.40
2022-10-01T16:08:26.315Z,14.40
2022-10-01T16:11:23.643Z,14.40
2022-10-01T16:14:31.541Z,14.30
2022-10-01T16:17:16.931Z,14.30
2022-10-01T16:20:33.100Z,14.40
2022-10-01T16:23:47.970Z,14.40
2022-10-01T16:26:38.167Z,14.30
2022-10-01T16:29:25.561Z,14.30
2022-10-01T16:32:14.909Z,14.40
2022-10-01T16:35:25.291Z,14.40
2022-10-01T16:38:10.927Z,14.40
2022-10-01T16:40:56.287Z,14.40
2022-10-01T16:43:42.267Z,14.40
2022-10-01T16:46:27.753Z,14.30
2022-10-01T16:49:15.050Z,14.40
2022-10-01T16:52:00.473Z,14.30
2022-10-01T16:54:47.529Z,14.20
2022-10-01T16:57:32.768Z,14.30
2022-10-01T17:00:20.164Z,14.30
2022-10-01T17:03:09.062Z,14.30
2022-10-01T17:05:54.393Z,14.20
2022-10-01T17:08:39.844Z,14.10
2022-10-01T17:11:26.951Z,14.10
2022-10-01T17:14:18.324Z,14.10
2022-10-01T17:17:03.930Z,14.10
2022-10-01T17:19:49.324Z,14.10
2022-10-01T17:22:34.887Z,14.10
2022-10-01T17:25:23.515Z,14.10
2022-10-01T17:28:13.938Z,14.10
2022-10-01T17:30:59.840Z,14.00
2022-10-01T17:33:45.632Z,13.90
2022-10-01T17:36:31.556Z,13.90
2022-10-01T17:39:16.805Z,13.90
2022-10-01T17:42:02.480Z,13.90
2022-10-01T17:44:47.816Z,13.90
2022-10-01T17:47:33.841Z,13.90
2022-10-01T17:50:19.346Z,13.90
2022-10-01T17:53:04.699Z,13.90
2022-10-01T17:55:50.469Z,13.80
2022-10-01T17:58:36.219Z,13.80
2022-10-01T18:01:22.344Z,13.80
2022-10-01T18:04:12.399Z,13.80
2022-10-01T18:06:59.812Z,13.80
2022-10-01T18:09:46.132Z,13.80
2022-10-01T18:12:33.016Z,13.70
2022-10-01T18:15:20.884Z,13.80
2022-10-01T18:19:31.140Z,13.80
2022-10-01T18:21:13.696Z,13.80
2022-10-01T18:24:03.975Z,13.80
2022-10-01T18:26:50.626Z,13.80
2022-10-01T18:29:36.101Z,13.80
2022-10-01T18:32:24.411Z,13.70
2022-10-01T18:35:25.368Z,13.80
2022-10-01T18:38:29.722Z,13.80
2022-10-01T18:41:36.435Z,13.80
2022-10-01T18:44:23.825Z,13.80
2022-10-01T18:47:15.714Z,13.80
2022-10-01T18:50:18.363Z,13.80
2022-10-01T18:53:18.324Z,13.80
2022-10-01T18:56:13.198Z,13.80
2022-10-01T18:59:18.539Z,13.70
2022-10-01T19:02:16.184Z,13.70
2022-10-01T19:05:39.540Z,13.70
2022-10-01T19:08:49.542Z,13.70
2022-10-01T19:12:12.400Z,13.80
2022-10-01T19:15:22.811Z,13.70
2022-10-01T19:18:17.748Z,13.80
2022-10-01T19:21:31.722Z,13.90
2022-10-01T19:24:54.859Z,13.90
2022-10-01T19:28:00.698Z,13.80
2022-10-01T19:30:48.733Z,13.80
2022-10-01T19:33:42.105Z,13.70
2022-10-01T19:36:34.816Z,13.60
2022-10-01T19:39:25.876Z,13.60
2022-10-01T19:42:21.507Z,13.50
2022-10-01T19:45:29.699Z,13.50
2022-10-01T19:48:26.291Z,13.40
2022-10-01T19:51:04.354Z,13.40
2022-10-01T19:54:01.086Z,13.40
2022-10-01T19:56:51.361Z,13.30
2022-10-01T19:59:37.235Z,13.30
2022-10-01T20:02:39.976Z,13.30
2022-10-01T20:05:30.067Z,13.30
2022-10-01T20:08:25.092Z,13.30
2022-10-01T20:11:32.016Z,13.40
2022-10-01T20:14:51.107Z,13.30
2022-10-01T20:18:25.746Z,13.30
2022-10-01T20:21:16.239Z,13.20
2022-10-01T20:24:17.209Z,13.20
2022-10-01T20:27:15.044Z,13.20
2022-10-01T20:30:07.540Z,13.20
2022-10-01T20:33:07.293Z,13.20
2022-10-01T20:36:14.009Z,13.10
2022-10-01T20:39:21.498Z,13.10
2022-10-01T20:42:15.846Z,13.10
2022-10-01T20:45:03.898Z,13.10
2022-10-01T20:47:54.619Z,13.20
2022-10-01T20:50:45.040Z,13.10
2022-10-01T20:54:05.683Z,13.10
2022-10-01T20:57:03.341Z,13.10
2022-10-01T20:59:53.289Z,13.00
2022-10-01T21:02:42.669Z,13.00
2022-10-01T21:05:44.389Z,13.00
2022-10-01T21:08:51.687Z,13.00
2022-10-01T21:12:04.925Z,13.20
2022-10-01T21:14:55.690Z,13.20
2022-10-01T21:17:57.575Z,13.20
2022-10-01T21:21:16.051Z,13.30
2022-10-01T21:24:13.342Z,13.20
2022-10-01T21:27:16.879Z,13.20
2022-10-01T21:30:14.248Z,13.20
2022-10-01T21:33:22.650Z,13.20
2022-10-01T21:36:27.074Z,13.30
2022-10-01T21:39:31.928Z,13.30
2022-10-01T21:42:27.074Z,13.40
2022-10-01T21:45:22.232Z,13.40
2022-10-01T21:48:20.025Z,13.40
2022-10-01T21:51:28.077Z,13.30
2022-10-01T21:54:38.710Z,13.50
2022-10-01T21:57:53.360Z,13.40
2022-10-01T22:00:38.859Z,13.40
2022-10-01T22:03:41.082Z,13.50
2022-10-01T22:06:34.067Z,13.40
2022-10-01T22:09:32.609Z,13.40
2022-10-01T22:12:19.064Z,13.40
2022-10-01T22:15:21.957Z,13.40
2022-10-01T22:18:16.124Z,13.50
2022-10-01T22:21:07.172Z,13.50
2022-10-01T22:24:01.834Z,13.60
2022-10-01T22:26:54.012Z,13.50
2022-10-01T22:29:46.428Z,13.60
2022-10-01T22:32:41.936Z,13.60
2022-10-01T22:35:59.335Z,13.60
2022-10-01T22:38:53.870Z,13.70
2022-10-01T22:41:49.482Z,13.70
2022-10-01T22:44:34.890Z,13.60
2022-10-01T22:47:39.016Z,13.60
2022-10-01T22:50:50.056Z,13.60
2022-10-01T22:53:49.426Z,13.60
2022-10-01T22:56:40.134Z,13.60
2022-10-01T23:00:01.665Z,13.60
2022-10-01T23:03:05.708Z,13.60
2022-10-01T23:06:08.137Z,13.50
2022-10-01T23:09:17.637Z,13.60
2022-10-01T23:12:14.870Z,13.50
2022-10-01T23:15:16.768Z,13.50
2022-10-01T23:18:34.442Z,13.50
2022-10-01T23:21:40.216Z,13.30
2022-10-01T23:25:03.169Z,13.40
2022-10-01T23:27:59.883Z,13.40
2022-10-01T23:31:14.396Z,13.40
2022-10-01T23:34:17.965Z,13.30
2022-10-01T23:37:18.522Z,13.40
2022-10-01T23:40:21.269Z,13.30
2022-10-01T23:43:11.509Z,13.30
2022-10-01T23:46:23.868Z,13.30
2022-10-01T23:49:17.311Z,13.30
2022-10-01T23:52:19.110Z,13.30
2022-10-01T23:55:59.977Z,13.20
2022-10-01T23:58:51.890Z,13.20
